Amstel Stork — 3FOP7 — position and weather

sailwx.info

Track history (hours):
 
Tides and Currents Weather Stations Pressure Air Temp Water Temp Dewpoint Dewpoint Depression Visibility Wind Speed Wind Dir Waves Ship Positions

Amstel Stork

Last reported at 2018-Feb-12 00:10 UTC. Time now 2018-Feb-19 18:07 UTC.
Position N 48°35' W 126°19'.

Length 200 m; draft 11.8 m.

Type: Cargo ship. MMSI: 374512000.

Date/timePositionNaut miles runAvg speedWind from/ knotsBaromVisibWave heightAir tempDewpointWater temp
2018-Feb-12 00:10N 48°35' W 126°19'211.4
2018-Feb-12 00:00N 48°35' W 126°17'611.7
2018-Feb-11 23:31N 48°35' W 126°08'611.9
2018-Feb-11 23:00N 48°34' W 125°59'611.6
2018-Feb-11 22:30N 48°34' W 125°50'612.0
2018-Feb-11 22:01N 48°33' W 125°41'611.8
2018-Feb-11 21:30N 48°32' W 125°32'611.8
2018-Feb-11 21:01N 48°32' W 125°24'611.8
2018-Feb-11 20:31N 48°31' W 125°15'611.8
2018-Feb-11 20:00N 48°31' W 125°06'611.8
2018-Feb-11 19:30N 48°31' W 124°57'612.1
2018-Feb-11 19:00N 48°31' W 124°48'612.0
2018-Feb-11 18:30N 48°29' W 124°39'612.4
2018-Feb-11 18:00N 48°27' W 124°30'612.4
2018-Feb-11 17:31N 48°24' W 124°22'612.5
2018-Feb-11 17:00N 48°22' W 124°13'612.7
2018-Feb-11 16:30N 48°20' W 124°04'612.9
2018-Feb-11 16:00N 48°17' W 123°55'712.8
2018-Feb-11 15:30N 48°16' W 123°45'713.0
2018-Feb-11 14:59N 48°15' W 123°36'611.4
2018-Feb-11 14:30N 48°18' W 123°28'611.5
2018-Feb-11 14:00N 48°23' W 123°24'612.0
2018-Feb-11 13:30N 48°24' W 123°15'612.0
2018-Feb-11 13:00N 48°30' W 123°13'712.9
2018-Feb-11 12:30N 48°36' W 123°14'611.8
2018-Feb-11 12:00N 48°42' W 123°14'612.4
2018-Feb-11 11:30N 48°45' W 123°06'510.1
2018-Feb-11 10:59N 48°49' W 123°01'613.0
2018-Feb-11 10:30N 48°54' W 123°08'612.7
2018-Feb-11 10:00N 48°58' W 123°15'612.2
2018-Feb-11 09:30N 49°02' W 123°22'611.2
2018-Feb-11 09:00N 49°08' W 123°23'612.6
2018-Feb-11 08:30N 49°14' W 123°20'611.9
2018-Feb-11 08:00N 49°19' W 123°15'5 9.8
2018-Feb-11 07:30N 49°19' W 123°08'1 1.9
2018-Feb-11 07:00N 49°19' W 123°06'0 0.0
2018-Feb-11 06:30N 49°19' W 123°06'0 0.0
2018-Feb-11 06:00N 49°19' W 123°06'0 0.0
2018-Feb-11 05:30N 49°19' W 123°06'0 0.0
2018-Feb-11 05:00N 49°19' W 123°06'0 0.0
2018-Feb-11 04:30N 49°19' W 123°06'0 0.0
2018-Feb-11 04:00N 49°19' W 123°06'0 0.0
2018-Feb-11 03:30N 49°19' W 123°06'0 0.0
2018-Feb-11 03:00N 49°19' W 123°06'0 0.0
2018-Feb-11 02:30N 49°19' W 123°06'0 0.0
2018-Feb-11 02:00N 49°19' W 123°06'0 0.0
2018-Feb-11 01:30N 49°19' W 123°06'0 0.0
2018-Feb-11 01:00N 49°18' W 123°06'0 0.0
2018-Feb-11 00:30N 49°19' W 123°06'0 0.0
2018-Feb-11 00:00N 49°19' W 123°06'0 0.0
2018-Feb-10 23:30N 49°19' W 123°06'0 0.0
2018-Feb-10 23:00N 49°19' W 123°06'0 0.0
2018-Feb-10 22:30N 49°19' W 123°06'0 0.0
2018-Feb-10 22:00N 49°19' W 123°06'0 0.0
2018-Feb-10 21:30N 49°19' W 123°06'0 0.1
2018-Feb-10 21:00N 49°18' W 123°07'1 1.6
2018-Feb-10 20:30N 49°18' W 123°06'3 5.4
2018-Feb-10 20:00N 49°19' W 123°09'2 4.4
2018-Feb-10 19:30N 49°17' W 123°12'0 0.1
2018-Feb-10 19:00N 49°17' W 123°12'0 0.1
2018-Feb-10 18:30N 49°17' W 123°12'0 0.0
2018-Feb-10 18:00N 49°17' W 123°12'0 0.0
2018-Feb-10 17:30N 49°17' W 123°12'0 0.0
2018-Feb-10 17:00N 49°17' W 123°12'0 0.1
2018-Feb-10 16:30N 49°17' W 123°12'0 0.1
2018-Feb-10 16:00N 49°17' W 123°12'0 0.1
2018-Feb-10 15:30N 49°17' W 123°12'0 0.0
2018-Feb-10 15:00N 49°17' W 123°12'0 0.0
2018-Feb-10 14:30N 49°17' W 123°12'0 0.0
2018-Feb-10 14:00N 49°17' W 123°12'0 0.0
2018-Feb-10 13:30N 49°17' W 123°12'0 0.1
2018-Feb-10 13:00N 49°17' W 123°12'0 0.2
2018-Feb-10 12:30N 49°17' W 123°12'0 0.2
2018-Feb-10 11:57N 49°17' W 123°12'0 0.0
2018-Feb-10 11:30N 49°17' W 123°12'0 0.0
2018-Feb-10 11:00N 49°17' W 123°12'0 0.0
2018-Feb-10 10:30N 49°17' W 123°12'0 0.0
2018-Feb-10 10:00N 49°17' W 123°12'0 0.0
2018-Feb-10 09:27N 49°17' W 123°12'0 0.0
2018-Feb-10 09:00N 49°17' W 123°12'0 0.1
2018-Feb-10 08:27N 49°17' W 123°12'0 0.0
2018-Feb-10 08:00N 49°17' W 123°12'0 0.0
2018-Feb-10 07:30N 49°17' W 123°12'0 0.1
2018-Feb-10 06:57N 49°17' W 123°12'0 0.0
2018-Feb-10 06:27N 49°17' W 123°12'0 0.0
2018-Feb-10 06:00N 49°17' W 123°12'0 0.0
2018-Feb-10 05:27N 49°17' W 123°12'0 0.0
2018-Feb-10 05:00N 49°17' W 123°12'0 0.0
2018-Feb-10 04:30N 49°17' W 123°12'0 0.0
2018-Feb-10 04:00N 49°17' W 123°12'0 0.1
2018-Feb-10 03:30N 49°17' W 123°12'0 0.2
2018-Feb-10 02:57N 49°17' W 123°12'0 0.2
2018-Feb-10 02:24N 49°17' W 123°12'0 0.0
2018-Feb-10 02:00N 49°17' W 123°12'0 0.0
2018-Feb-10 01:30N 49°17' W 123°12'0 0.0
2018-Feb-10 01:00N 49°17' W 123°12'0 0.0
2018-Feb-10 00:30N 49°17' W 123°12'0 0.0
2018-Feb-10 00:00N 49°17' W 123°12'0 0.0
2018-Feb-09 23:30N 49°17' W 123°12'0 0.0
2018-Feb-09 23:00N 49°17' W 123°12'0 0.0
2018-Feb-09 22:45N 49°17' W 123°12'0 0.0
2018-Feb-08 01:30N 49°17' W 123°12'0 0.0
2018-Feb-08 00:57N 49°17' W 123°12'0 0.0
2018-Feb-08 00:29N 49°17' W 123°12'0 0.0
2018-Feb-07 23:59N 49°17' W 123°12'0 0.1
2018-Feb-07 23:30N 49°17' W 123°12'0 0.2
2018-Feb-07 23:00N 49°17' W 123°12'0 0.2
2018-Feb-07 22:24N 49°17' W 123°12'0 0.0
2018-Feb-07 22:00N 49°17' W 123°12'0 0.0
2018-Feb-07 21:26N 49°17' W 123°12'0 0.0
2018-Feb-07 09:29N 49°17' W 123°12'0 0.0
2018-Feb-07 08:53N 49°17' W 123°12'0 0.0
2018-Feb-07 08:29N 49°17' W 123°12'0 0.1
2018-Feb-07 07:59N 49°17' W 123°12'0 0.1
2018-Feb-07 07:29N 49°17' W 123°12'0 0.1
2018-Feb-07 06:53N 49°17' W 123°12'0 0.1
2018-Feb-07 06:14N 49°17' W 123°12'0 0.1
2018-Feb-07 05:57N 49°17' W 123°12'0 0.0
2018-Feb-07 05:23N 49°17' W 123°12'0 0.0
2018-Feb-07 04:56N 49°17' W 123°12'0 0.1
2018-Feb-07 04:29N 49°17' W 123°12'0 0.1
2018-Feb-07 03:59N 49°17' W 123°12'0 0.1
2018-Feb-07 03:26N 49°17' W 123°12'0 0.0
2018-Feb-07 02:56N 49°17' W 123°12'0 0.1
2018-Feb-07 02:29N 49°17' W 123°12'0 0.0
2018-Feb-07 01:59N 49°17' W 123°12'0 0.0
2018-Feb-07 01:26N 49°17' W 123°12'0 0.1
2018-Feb-07 00:59N 49°17' W 123°12'0 0.3
2018-Feb-07 00:29N 49°17' W 123°12'0 0.1
2018-Feb-06 23:59N 49°17' W 123°12'0 0.0
2018-Feb-06 23:29N 49°17' W 123°12'0 0.0
2018-Feb-06 22:50N 49°17' W 123°12'0 0.0
2018-Feb-06 22:29N 49°17' W 123°12'0 0.0
2018-Feb-06 21:59N 49°17' W 123°12'0 0.0
2018-Feb-06 21:29N 49°17' W 123°12'0 0.0
2018-Feb-06 20:56N 49°17' W 123°12'0 0.0
2018-Feb-06 20:29N 49°17' W 123°12'0 0.0
2018-Feb-06 19:59N 49°17' W 123°12'0 0.0
2018-Feb-06 19:29N 49°17' W 123°12'0 0.0
2018-Feb-06 18:59N 49°17' W 123°12'0 0.1
2018-Feb-06 18:29N 49°17' W 123°12'0 0.1
2018-Feb-06 17:59N 49°17' W 123°12'0 0.1
2018-Feb-06 17:29N 49°17' W 123°12'0 0.0
2018-Feb-06 16:59N 49°17' W 123°12'0 0.0
2018-Feb-06 16:29N 49°17' W 123°12'0 0.1
2018-Feb-06 15:59N 49°17' W 123°12'0 0.0
2018-Feb-06 15:29N 49°17' W 123°12'0 0.1
2018-Feb-06 14:56N 49°17' W 123°12'0 0.0
2018-Feb-06 14:29N 49°17' W 123°12'0 0.0
2018-Feb-06 13:59N 49°17' W 123°12'0 0.1
2018-Feb-06 13:20N 49°17' W 123°12'0 0.1
2018-Feb-06 12:56N 49°17' W 123°12'0 0.0
2018-Feb-06 12:26N 49°17' W 123°12'0 0.0
2018-Feb-06 11:56N 49°17' W 123°12'0 0.1
2018-Feb-06 11:23N 49°17' W 123°12'0 0.0
2018-Feb-06 10:59N 49°17' W 123°12'0 0.1
2018-Feb-06 10:29N 49°17' W 123°12'0 0.0
2018-Feb-06 09:59N 49°17' W 123°12'0 0.1
2018-Feb-06 09:26N 49°17' W 123°12'0 0.1
2018-Feb-06 08:59N 49°17' W 123°12'0 0.0
2018-Feb-06 08:29N 49°17' W 123°12'0 0.0
2018-Feb-06 07:59N 49°17' W 123°12'0 0.0
2018-Feb-06 07:17N 49°17' W 123°12'0 0.0
2018-Feb-06 06:59N 49°17' W 123°12'0 0.0
2018-Feb-06 06:26N 49°17' W 123°12'0 0.0
2018-Feb-06 05:59N 49°17' W 123°12'0 0.1
2018-Feb-06 05:26N 49°17' W 123°12'0 0.0
2018-Feb-06 04:59N 49°17' W 123°12'0 0.0
2018-Feb-06 04:26N 49°17' W 123°12'0 0.0
2018-Feb-06 03:59N 49°17' W 123°12'0 0.0
2018-Feb-06 03:29N 49°17' W 123°12'0 0.0
2018-Feb-06 02:59N 49°17' W 123°12'0 0.0
2018-Feb-06 02:23N 49°17' W 123°12'0 0.0
2018-Feb-06 01:59N 49°17' W 123°12'0 0.0
2018-Feb-06 01:29N 49°17' W 123°12'0 0.8
2018-Feb-06 00:57N 49°18' W 123°12'2 3.5
2018-Feb-06 00:30N 49°19' W 123°10'3 5.3
2018-Feb-06 00:00N 49°18' W 123°06'0 0.1
2018-Feb-05 23:29N 49°19' W 123°07'0 0.1
2018-Feb-05 22:59N 49°19' W 123°06'0 0.0
2018-Feb-05 22:29N 49°19' W 123°06'0 0.0
2018-Feb-05 21:53N 49°19' W 123°06'0 0.0
2018-Feb-05 21:29N 49°19' W 123°06'0 0.0
2018-Feb-05 20:59N 49°19' W 123°06'0 0.0
2018-Feb-05 20:29N 49°19' W 123°06'0 0.1
2018-Feb-05 19:59N 49°19' W 123°07'0 0.1
2018-Feb-05 19:29N 49°19' W 123°06'0 0.0
2018-Feb-05 18:59N 49°19' W 123°06'0 0.0
2018-Feb-05 18:29N 49°19' W 123°06'0 0.0
2018-Feb-05 17:59N 49°19' W 123°06'0 0.0
2018-Feb-05 17:29N 49°19' W 123°06'0 0.0
2018-Feb-05 16:59N 49°19' W 123°06'0 0.0
2018-Feb-05 16:29N 49°19' W 123°06'0 0.0
2018-Feb-05 15:59N 49°19' W 123°06'0 0.0
2018-Feb-05 15:29N 49°19' W 123°06'0 0.0
2018-Feb-05 14:59N 49°19' W 123°06'0 0.0
2018-Feb-05 14:29N 49°19' W 123°06'0 0.0
2018-Feb-05 13:59N 49°19' W 123°06'0 0.0
2018-Feb-05 13:29N 49°19' W 123°06'0 0.0
2018-Feb-05 12:59N 49°19' W 123°06'0 0.0
2018-Feb-05 12:29N 49°19' W 123°06'0 0.0
2018-Feb-05 11:59N 49°19' W 123°06'0 0.0
2018-Feb-05 11:29N 49°19' W 123°06'0 0.0
2018-Feb-05 10:59N 49°19' W 123°06'0 0.0
2018-Feb-05 10:29N 49°19' W 123°06'0 0.0
2018-Feb-05 09:59N 49°19' W 123°06'0 0.0
2018-Feb-05 09:29N 49°19' W 123°06'0 0.0
2018-Feb-05 08:59N 49°19' W 123°06'0 0.0
2018-Feb-05 08:29N 49°19' W 123°06'0 0.0
2018-Feb-05 07:59N 49°19' W 123°06'0 0.0
2018-Feb-05 07:29N 49°19' W 123°06'0 0.0
2018-Feb-05 06:59N 49°19' W 123°06'0 0.1
2018-Feb-05 06:29N 49°19' W 123°07'0 0.0
2018-Feb-05 05:29N 49°19' W 123°06'0 0.0
2018-Feb-05 04:59N 49°19' W 123°06'0 0.0
2018-Feb-05 04:29N 49°19' W 123°06'0 0.0
2018-Feb-05 03:59N 49°19' W 123°06'0 0.1
2018-Feb-05 03:29N 49°19' W 123°07'0 0.1
2018-Feb-05 02:59N 49°19' W 123°06'0 0.0
2018-Feb-05 02:29N 49°19' W 123°06'0 0.0
2018-Feb-05 01:59N 49°19' W 123°06'0 0.0
2018-Feb-05 01:29N 49°19' W 123°06'0 0.0
2018-Feb-05 00:59N 49°19' W 123°06'0 0.0
2018-Feb-05 00:29N 49°19' W 123°06'0 0.0
2018-Feb-04 23:59N 49°19' W 123°06'0 0.0
2018-Feb-04 23:29N 49°19' W 123°06'0 0.0
2018-Feb-04 22:59N 49°19' W 123°06'0 0.0
2018-Feb-04 22:29N 49°19' W 123°06'0 0.0
2018-Feb-04 21:59N 49°19' W 123°06'0 0.0
2018-Feb-04 21:29N 49°19' W 123°06'0 0.0
2018-Feb-04 20:59N 49°19' W 123°06'0 0.0
2018-Feb-04 19:59N 49°19' W 123°06'0 0.0
2018-Feb-04 19:29N 49°18' W 123°06'0 0.0
2018-Feb-04 18:59N 49°19' W 123°06'0 0.1
2018-Feb-04 18:29N 49°19' W 123°07'0 0.1
2018-Feb-04 17:59N 49°19' W 123°06'0 0.0
2018-Feb-04 17:29N 49°19' W 123°06'0 0.0
2018-Feb-04 15:29N 49°19' W 123°06'0 0.0
2018-Feb-04 14:56N 49°19' W 123°06'0 0.0
2018-Feb-04 14:29N 49°19' W 123°06'0 0.1
2018-Feb-04 13:56N 49°19' W 123°07'0 0.1
2018-Feb-04 13:26N 49°19' W 123°06'0 0.0
2018-Feb-04 12:59N 49°19' W 123°06'0 0.0
2018-Feb-04 12:29N 49°19' W 123°06'0 0.0
2018-Feb-04 11:59N 49°19' W 123°06'0 0.0
2018-Feb-04 11:29N 49°19' W 123°06'0 0.0
2018-Feb-04 09:59N 49°19' W 123°06'0 0.0
2018-Feb-04 08:59N 49°19' W 123°06'0 0.0
2018-Feb-04 08:29N 49°19' W 123°06'0 0.0
2018-Feb-04 07:59N 49°19' W 123°06'0 0.0
2018-Feb-04 07:29N 49°19' W 123°06'0 0.0
2018-Feb-04 06:59N 49°19' W 123°06'0 0.0
2018-Feb-04 06:29N 49°19' W 123°06'0 0.0
2018-Feb-04 05:59N 49°19' W 123°06'0 0.0
2018-Feb-04 05:29N 49°19' W 123°06'0 0.0
2018-Feb-04 04:59N 49°19' W 123°06'0 0.0
2018-Feb-04 04:29N 49°19' W 123°06'0 0.0
2018-Feb-04 03:59N 49°19' W 123°06'0 0.0
2018-Feb-04 03:29N 49°19' W 123°06'0 0.0
2018-Feb-04 02:59N 49°19' W 123°06'0 0.1
2018-Feb-04 02:29N 49°19' W 123°07'0 0.1
2018-Feb-04 01:59N 49°19' W 123°06'0 0.0
2018-Feb-04 01:29N 49°18' W 123°06'0 0.0
2018-Feb-04 00:59N 49°19' W 123°06'0 0.0
2018-Feb-04 00:29N 49°19' W 123°06'0 0.0
2018-Feb-03 23:59N 49°19' W 123°06'0 0.0
2018-Feb-03 23:29N 49°19' W 123°06'0 0.0
2018-Feb-03 22:59N 49°19' W 123°06'0 0.0
2018-Feb-03 22:29N 49°19' W 123°06'0 0.0
2018-Feb-03 21:59N 49°19' W 123°06'0 0.0
2018-Feb-03 21:29N 49°19' W 123°06'0 0.0
2018-Feb-03 20:59N 49°19' W 123°06'0 0.0
2018-Feb-03 20:29N 49°19' W 123°06'0 0.0
2018-Feb-03 19:59N 49°19' W 123°06'0 0.0
2018-Feb-03 18:29N 49°19' W 123°06'0 0.0
2018-Feb-03 17:59N 49°19' W 123°06'0 0.0
2018-Feb-03 17:29N 49°19' W 123°06'0 0.0
2018-Feb-03 16:59N 49°19' W 123°06'0 0.0
2018-Feb-03 15:59N 49°19' W 123°06'0 0.0
2018-Feb-03 15:29N 49°19' W 123°06'0 0.0
2018-Feb-03 14:59N 49°19' W 123°06'0 0.0
2018-Feb-03 14:29N 49°19' W 123°06'0 0.0
2018-Feb-03 13:59N 49°19' W 123°06'0 0.0
2018-Feb-03 13:29N 49°19' W 123°06'0 0.0
2018-Feb-03 12:59N 49°19' W 123°06'0 0.0
2018-Feb-03 12:29N 49°19' W 123°06'0 0.0
2018-Feb-03 11:59N 49°19' W 123°06'0 0.0
2018-Feb-03 11:29N 49°19' W 123°06'0 0.0
2018-Feb-03 10:59N 49°19' W 123°06'0 0.0
2018-Feb-03 10:29N 49°19' W 123°06'0 0.0
2018-Feb-03 09:59N 49°19' W 123°06'0 0.0
2018-Feb-03 09:29N 49°19' W 123°06'0 0.0
2018-Feb-03 08:59N 49°19' W 123°06'0 0.0
2018-Feb-03 08:29N 49°19' W 123°06'0 0.0
2018-Feb-03 07:59N 49°19' W 123°06'0 0.0
2018-Feb-03 06:29N 49°19' W 123°06'0 0.0
2018-Feb-03 05:59N 49°19' W 123°06'0 0.0
2018-Feb-03 05:29N 49°19' W 123°06'0 0.0
2018-Feb-03 04:59N 49°19' W 123°06'0 0.0
2018-Feb-03 03:59N 49°19' W 123°06'0 0.0
2018-Feb-03 03:29N 49°19' W 123°06'0 0.0
2018-Feb-03 01:59N 49°19' W 123°06'0 0.0
2018-Feb-03 01:29N 49°19' W 123°06'0 0.0
2018-Feb-03 00:59N 49°19' W 123°06'0 0.0
2018-Feb-03 00:29N 49°19' W 123°06'0 0.0
2018-Feb-02 23:59N 49°19' W 123°06'0 0.0
2018-Feb-02 23:29N 49°19' W 123°06'0 0.0
2018-Feb-02 22:59N 49°19' W 123°06'0 0.1
2018-Feb-02 22:29N 49°19' W 123°07'0 0.1
2018-Feb-02 21:59N 49°19' W 123°06'0 0.0
2018-Feb-02 21:29N 49°18' W 123°06'0 0.0
2018-Feb-02 20:59N 49°19' W 123°06'0 0.0
2018-Feb-02 20:29N 49°19' W 123°06'0 0.0
2018-Feb-02 19:59N 49°19' W 123°06'0 0.0
2018-Feb-02 18:59N 49°19' W 123°06'0 0.1
2018-Feb-02 18:29N 49°19' W 123°07'0 0.1
2018-Feb-02 17:59N 49°19' W 123°06'0 0.0
2018-Feb-02 17:29N 49°19' W 123°06'0 0.0
2018-Feb-02 16:59N 49°19' W 123°06'0 0.0
2018-Feb-02 16:29N 49°19' W 123°06'0 0.0
2018-Feb-02 15:29N 49°19' W 123°06'0 0.0
2018-Feb-02 14:29N 49°19' W 123°06'0 0.0
2018-Feb-02 13:59N 49°19' W 123°06'0 0.0
2018-Feb-02 13:29N 49°19' W 123°06'0 0.1
2018-Feb-02 12:59N 49°19' W 123°07'0 0.1
2018-Feb-02 12:29N 49°19' W 123°06'0 0.0
2018-Feb-02 11:59N 49°18' W 123°06'0 0.0
2018-Feb-02 11:29N 49°19' W 123°06'0 0.0
2018-Feb-02 10:59N 49°19' W 123°06'0 0.0
2018-Feb-02 10:29N 49°19' W 123°06'0 0.0
2018-Feb-02 09:59N 49°19' W 123°06'0 0.0
2018-Feb-02 09:29N 49°19' W 123°06'0 0.0
2018-Feb-02 08:59N 49°19' W 123°06'0 0.0
2018-Feb-02 08:29N 49°19' W 123°06'0 0.0
2018-Feb-02 07:59N 49°19' W 123°06'0 0.0
2018-Feb-02 07:29N 49°19' W 123°06'0 0.0
2018-Feb-02 06:59N 49°19' W 123°06'0 0.0
2018-Feb-02 06:29N 49°19' W 123°06'0 0.0
2018-Feb-02 05:59N 49°19' W 123°06'0 0.0
2018-Feb-02 05:29N 49°19' W 123°06'0 0.0
2018-Feb-02 04:59N 49°19' W 123°06'0 0.0
2018-Feb-02 04:29N 49°19' W 123°06'0 0.0
2018-Feb-02 03:59N 49°19' W 123°06'0 0.0
2018-Feb-02 03:29N 49°19' W 123°06'0 0.0
2018-Feb-02 02:59N 49°19' W 123°06'0 0.0
2018-Feb-02 02:28N 49°19' W 123°06'0 0.0
2018-Feb-02 01:59N 49°19' W 123°06'0 0.0
2018-Feb-02 01:29N 49°19' W 123°06'0 0.0
2018-Feb-02 00:59N 49°19' W 123°06'0 0.0
2018-Feb-02 00:29N 49°19' W 123°06'  
Track history (hours):
 
Tides and Currents Weather Stations Pressure Air Temp Water Temp Dewpoint Dewpoint Depression Visibility Wind Speed Wind Dir Waves Ship Positions

Amstel Stork

Last reported at 2018-Feb-12 00:10 UTC. Time now 2018-Feb-19 18:07 UTC.
Position N 48°35' W 126°19'.

Length 200 m; draft 11.8 m.

Type: Cargo ship. MMSI: 374512000.

Date/timePositionNaut miles runAvg speedWind from/ knotsBaromVisibWave heightAir tempDewpointWater temp
2018-Feb-12 00:10N 48°35' W 126°19'211.4
2018-Feb-12 00:00N 48°35' W 126°17'611.7
2018-Feb-11 23:31N 48°35' W 126°08'611.9
2018-Feb-11 23:00N 48°34' W 125°59'611.6
2018-Feb-11 22:30N 48°34' W 125°50'612.0
2018-Feb-11 22:01N 48°33' W 125°41'611.8
2018-Feb-11 21:30N 48°32' W 125°32'611.8
2018-Feb-11 21:01N 48°32' W 125°24'611.8
2018-Feb-11 20:31N 48°31' W 125°15'611.8
2018-Feb-11 20:00N 48°31' W 125°06'611.8
2018-Feb-11 19:30N 48°31' W 124°57'612.1
2018-Feb-11 19:00N 48°31' W 124°48'612.0
2018-Feb-11 18:30N 48°29' W 124°39'612.4
2018-Feb-11 18:00N 48°27' W 124°30'612.4
2018-Feb-11 17:31N 48°24' W 124°22'612.5
2018-Feb-11 17:00N 48°22' W 124°13'612.7
2018-Feb-11 16:30N 48°20' W 124°04'612.9
2018-Feb-11 16:00N 48°17' W 123°55'712.8
2018-Feb-11 15:30N 48°16' W 123°45'713.0
2018-Feb-11 14:59N 48°15' W 123°36'611.4
2018-Feb-11 14:30N 48°18' W 123°28'611.5
2018-Feb-11 14:00N 48°23' W 123°24'612.0
2018-Feb-11 13:30N 48°24' W 123°15'612.0
2018-Feb-11 13:00N 48°30' W 123°13'712.9
2018-Feb-11 12:30N 48°36' W 123°14'611.8
2018-Feb-11 12:00N 48°42' W 123°14'612.4
2018-Feb-11 11:30N 48°45' W 123°06'510.1
2018-Feb-11 10:59N 48°49' W 123°01'613.0
2018-Feb-11 10:30N 48°54' W 123°08'612.7
2018-Feb-11 10:00N 48°58' W 123°15'612.2
2018-Feb-11 09:30N 49°02' W 123°22'611.2
2018-Feb-11 09:00N 49°08' W 123°23'612.6
2018-Feb-11 08:30N 49°14' W 123°20'611.9
2018-Feb-11 08:00N 49°19' W 123°15'5 9.8
2018-Feb-11 07:30N 49°19' W 123°08'1 1.9
2018-Feb-11 07:00N 49°19' W 123°06'0 0.0
2018-Feb-11 06:30N 49°19' W 123°06'0 0.0
2018-Feb-11 06:00N 49°19' W 123°06'0 0.0
2018-Feb-11 05:30N 49°19' W 123°06'0 0.0
2018-Feb-11 05:00N 49°19' W 123°06'0 0.0
2018-Feb-11 04:30N 49°19' W 123°06'0 0.0
2018-Feb-11 04:00N 49°19' W 123°06'0 0.0
2018-Feb-11 03:30N 49°19' W 123°06'0 0.0
2018-Feb-11 03:00N 49°19' W 123°06'0 0.0
2018-Feb-11 02:30N 49°19' W 123°06'0 0.0
2018-Feb-11 02:00N 49°19' W 123°06'0 0.0
2018-Feb-11 01:30N 49°19' W 123°06'0 0.0
2018-Feb-11 01:00N 49°18' W 123°06'0 0.0
2018-Feb-11 00:30N 49°19' W 123°06'0 0.0
2018-Feb-11 00:00N 49°19' W 123°06'0 0.0
2018-Feb-10 23:30N 49°19' W 123°06'0 0.0
2018-Feb-10 23:00N 49°19' W 123°06'0 0.0
2018-Feb-10 22:30N 49°19' W 123°06'0 0.0
2018-Feb-10 22:00N 49°19' W 123°06'0 0.0
2018-Feb-10 21:30N 49°19' W 123°06'0 0.1
2018-Feb-10 21:00N 49°18' W 123°07'1 1.6
2018-Feb-10 20:30N 49°18' W 123°06'3 5.4
2018-Feb-10 20:00N 49°19' W 123°09'2 4.4
2018-Feb-10 19:30N 49°17' W 123°12'0 0.1
2018-Feb-10 19:00N 49°17' W 123°12'0 0.1
2018-Feb-10 18:30N 49°17' W 123°12'0 0.0
2018-Feb-10 18:00N 49°17' W 123°12'0 0.0
2018-Feb-10 17:30N 49°17' W 123°12'0 0.0
2018-Feb-10 17:00N 49°17' W 123°12'0 0.1
2018-Feb-10 16:30N 49°17' W 123°12'0 0.1
2018-Feb-10 16:00N 49°17' W 123°12'0 0.1
2018-Feb-10 15:30N 49°17' W 123°12'0 0.0
2018-Feb-10 15:00N 49°17' W 123°12'0 0.0
2018-Feb-10 14:30N 49°17' W 123°12'0 0.0
2018-Feb-10 14:00N 49°17' W 123°12'0 0.0
2018-Feb-10 13:30N 49°17' W 123°12'0 0.1
2018-Feb-10 13:00N 49°17' W 123°12'0 0.2
2018-Feb-10 12:30N 49°17' W 123°12'0 0.2
2018-Feb-10 11:57N 49°17' W 123°12'0 0.0
2018-Feb-10 11:30N 49°17' W 123°12'0 0.0
2018-Feb-10 11:00N 49°17' W 123°12'0 0.0
2018-Feb-10 10:30N 49°17' W 123°12'0 0.0
2018-Feb-10 10:00N 49°17' W 123°12'0 0.0
2018-Feb-10 09:27N 49°17' W 123°12'0 0.0
2018-Feb-10 09:00N 49°17' W 123°12'0 0.1
2018-Feb-10 08:27N 49°17' W 123°12'0 0.0
2018-Feb-10 08:00N 49°17' W 123°12'0 0.0
2018-Feb-10 07:30N 49°17' W 123°12'0 0.1
2018-Feb-10 06:57N 49°17' W 123°12'0 0.0
2018-Feb-10 06:27N 49°17' W 123°12'0 0.0
2018-Feb-10 06:00N 49°17' W 123°12'0 0.0
2018-Feb-10 05:27N 49°17' W 123°12'0 0.0
2018-Feb-10 05:00N 49°17' W 123°12'0 0.0
2018-Feb-10 04:30N 49°17' W 123°12'0 0.0
2018-Feb-10 04:00N 49°17' W 123°12'0 0.1
2018-Feb-10 03:30N 49°17' W 123°12'0 0.2
2018-Feb-10 02:57N 49°17' W 123°12'0 0.2
2018-Feb-10 02:24N 49°17' W 123°12'0 0.0
2018-Feb-10 02:00N 49°17' W 123°12'0 0.0
2018-Feb-10 01:30N 49°17' W 123°12'0 0.0
2018-Feb-10 01:00N 49°17' W 123°12'0 0.0
2018-Feb-10 00:30N 49°17' W 123°12'0 0.0
2018-Feb-10 00:00N 49°17' W 123°12'0 0.0
2018-Feb-09 23:30N 49°17' W 123°12'0 0.0
2018-Feb-09 23:00N 49°17' W 123°12'0 0.0
2018-Feb-09 22:45N 49°17' W 123°12'0 0.0
2018-Feb-08 01:30N 49°17' W 123°12'0 0.0
2018-Feb-08 00:57N 49°17' W 123°12'0 0.0
2018-Feb-08 00:29N 49°17' W 123°12'0 0.0
2018-Feb-07 23:59N 49°17' W 123°12'0 0.1
2018-Feb-07 23:30N 49°17' W 123°12'0 0.2
2018-Feb-07 23:00N 49°17' W 123°12'0 0.2
2018-Feb-07 22:24N 49°17' W 123°12'0 0.0
2018-Feb-07 22:00N 49°17' W 123°12'0 0.0
2018-Feb-07 21:26N 49°17' W 123°12'0 0.0
2018-Feb-07 09:29N 49°17' W 123°12'0 0.0
2018-Feb-07 08:53N 49°17' W 123°12'0 0.0
2018-Feb-07 08:29N 49°17' W 123°12'0 0.1
2018-Feb-07 07:59N 49°17' W 123°12'0 0.1
2018-Feb-07 07:29N 49°17' W 123°12'0 0.1
2018-Feb-07 06:53N 49°17' W 123°12'0 0.1
2018-Feb-07 06:14N 49°17' W 123°12'0 0.1
2018-Feb-07 05:57N 49°17' W 123°12'0 0.0
2018-Feb-07 05:23N 49°17' W 123°12'0 0.0
2018-Feb-07 04:56N 49°17' W 123°12'0 0.1
2018-Feb-07 04:29N 49°17' W 123°12'0 0.1
2018-Feb-07 03:59N 49°17' W 123°12'0 0.1
2018-Feb-07 03:26N 49°17' W 123°12'0 0.0
2018-Feb-07 02:56N 49°17' W 123°12'0 0.1
2018-Feb-07 02:29N 49°17' W 123°12'0 0.0
2018-Feb-07 01:59N 49°17' W 123°12'0 0.0
2018-Feb-07 01:26N 49°17' W 123°12'0 0.1
2018-Feb-07 00:59N 49°17' W 123°12'0 0.3
2018-Feb-07 00:29N 49°17' W 123°12'0 0.1
2018-Feb-06 23:59N 49°17' W 123°12'0 0.0
2018-Feb-06 23:29N 49°17' W 123°12'0 0.0
2018-Feb-06 22:50N 49°17' W 123°12'0 0.0
2018-Feb-06 22:29N 49°17' W 123°12'0 0.0
2018-Feb-06 21:59N 49°17' W 123°12'0 0.0
2018-Feb-06 21:29N 49°17' W 123°12'0 0.0
2018-Feb-06 20:56N 49°17' W 123°12'0 0.0
2018-Feb-06 20:29N 49°17' W 123°12'0 0.0
2018-Feb-06 19:59N 49°17' W 123°12'0 0.0
2018-Feb-06 19:29N 49°17' W 123°12'0 0.0
2018-Feb-06 18:59N 49°17' W 123°12'0 0.1
2018-Feb-06 18:29N 49°17' W 123°12'0 0.1
2018-Feb-06 17:59N 49°17' W 123°12'0 0.1
2018-Feb-06 17:29N 49°17' W 123°12'0 0.0
2018-Feb-06 16:59N 49°17' W 123°12'0 0.0
2018-Feb-06 16:29N 49°17' W 123°12'0 0.1
2018-Feb-06 15:59N 49°17' W 123°12'0 0.0
2018-Feb-06 15:29N 49°17' W 123°12'0 0.1
2018-Feb-06 14:56N 49°17' W 123°12'0 0.0
2018-Feb-06 14:29N 49°17' W 123°12'0 0.0
2018-Feb-06 13:59N 49°17' W 123°12'0 0.1
2018-Feb-06 13:20N 49°17' W 123°12'0 0.1
2018-Feb-06 12:56N 49°17' W 123°12'0 0.0
2018-Feb-06 12:26N 49°17' W 123°12'0 0.0
2018-Feb-06 11:56N 49°17' W 123°12'0 0.1
2018-Feb-06 11:23N 49°17' W 123°12'0 0.0
2018-Feb-06 10:59N 49°17' W 123°12'0 0.1
2018-Feb-06 10:29N 49°17' W 123°12'0 0.0
2018-Feb-06 09:59N 49°17' W 123°12'0 0.1
2018-Feb-06 09:26N 49°17' W 123°12'0 0.1
2018-Feb-06 08:59N 49°17' W 123°12'0 0.0
2018-Feb-06 08:29N 49°17' W 123°12'0 0.0
2018-Feb-06 07:59N 49°17' W 123°12'0 0.0
2018-Feb-06 07:17N 49°17' W 123°12'0 0.0
2018-Feb-06 06:59N 49°17' W 123°12'0 0.0
2018-Feb-06 06:26N 49°17' W 123°12'0 0.0
2018-Feb-06 05:59N 49°17' W 123°12'0 0.1
2018-Feb-06 05:26N 49°17' W 123°12'0 0.0
2018-Feb-06 04:59N 49°17' W 123°12'0 0.0
2018-Feb-06 04:26N 49°17' W 123°12'0 0.0
2018-Feb-06 03:59N 49°17' W 123°12'0 0.0
2018-Feb-06 03:29N 49°17' W 123°12'0 0.0
2018-Feb-06 02:59N 49°17' W 123°12'0 0.0
2018-Feb-06 02:23N 49°17' W 123°12'0 0.0
2018-Feb-06 01:59N 49°17' W 123°12'0 0.0
2018-Feb-06 01:29N 49°17' W 123°12'0 0.8
2018-Feb-06 00:57N 49°18' W 123°12'2 3.5
2018-Feb-06 00:30N 49°19' W 123°10'3 5.3
2018-Feb-06 00:00N 49°18' W 123°06'0 0.1
2018-Feb-05 23:29N 49°19' W 123°07'0 0.1
2018-Feb-05 22:59N 49°19' W 123°06'0 0.0
2018-Feb-05 22:29N 49°19' W 123°06'0 0.0
2018-Feb-05 21:53N 49°19' W 123°06'0 0.0
2018-Feb-05 21:29N 49°19' W 123°06'0 0.0
2018-Feb-05 20:59N 49°19' W 123°06'0 0.0
2018-Feb-05 20:29N 49°19' W 123°06'0 0.1
2018-Feb-05 19:59N 49°19' W 123°07'0 0.1
2018-Feb-05 19:29N 49°19' W 123°06'0 0.0
2018-Feb-05 18:59N 49°19' W 123°06'0 0.0
2018-Feb-05 18:29N 49°19' W 123°06'0 0.0
2018-Feb-05 17:59N 49°19' W 123°06'0 0.0
2018-Feb-05 17:29N 49°19' W 123°06'0 0.0
2018-Feb-05 16:59N 49°19' W 123°06'0 0.0
2018-Feb-05 16:29N 49°19' W 123°06'0 0.0
2018-Feb-05 15:59N 49°19' W 123°06'0 0.0
2018-Feb-05 15:29N 49°19' W 123°06'0 0.0
2018-Feb-05 14:59N 49°19' W 123°06'0 0.0
2018-Feb-05 14:29N 49°19' W 123°06'0 0.0
2018-Feb-05 13:59N 49°19' W 123°06'0 0.0
2018-Feb-05 13:29N 49°19' W 123°06'0 0.0
2018-Feb-05 12:59N 49°19' W 123°06'0 0.0
2018-Feb-05 12:29N 49°19' W 123°06'0 0.0
2018-Feb-05 11:59N 49°19' W 123°06'0 0.0
2018-Feb-05 11:29N 49°19' W 123°06'0 0.0
2018-Feb-05 10:59N 49°19' W 123°06'0 0.0
2018-Feb-05 10:29N 49°19' W 123°06'0 0.0
2018-Feb-05 09:59N 49°19' W 123°06'0 0.0
2018-Feb-05 09:29N 49°19' W 123°06'0 0.0
2018-Feb-05 08:59N 49°19' W 123°06'0 0.0
2018-Feb-05 08:29N 49°19' W 123°06'0 0.0
2018-Feb-05 07:59N 49°19' W 123°06'0 0.0
2018-Feb-05 07:29N 49°19' W 123°06'0 0.0
2018-Feb-05 06:59N 49°19' W 123°06'0 0.1
2018-Feb-05 06:29N 49°19' W 123°07'0 0.0
2018-Feb-05 05:29N 49°19' W 123°06'0 0.0
2018-Feb-05 04:59N 49°19' W 123°06'0 0.0
2018-Feb-05 04:29N 49°19' W 123°06'0 0.0
2018-Feb-05 03:59N 49°19' W 123°06'0 0.1
2018-Feb-05 03:29N 49°19' W 123°07'0 0.1
2018-Feb-05 02:59N 49°19' W 123°06'0 0.0
2018-Feb-05 02:29N 49°19' W 123°06'0 0.0
2018-Feb-05 01:59N 49°19' W 123°06'0 0.0
2018-Feb-05 01:29N 49°19' W 123°06'0 0.0
2018-Feb-05 00:59N 49°19' W 123°06'0 0.0
2018-Feb-05 00:29N 49°19' W 123°06'0 0.0
2018-Feb-04 23:59N 49°19' W 123°06'0 0.0
2018-Feb-04 23:29N 49°19' W 123°06'0 0.0
2018-Feb-04 22:59N 49°19' W 123°06'0 0.0
2018-Feb-04 22:29N 49°19' W 123°06'0 0.0
2018-Feb-04 21:59N 49°19' W 123°06'0 0.0
2018-Feb-04 21:29N 49°19' W 123°06'0 0.0
2018-Feb-04 20:59N 49°19' W 123°06'0 0.0
2018-Feb-04 19:59N 49°19' W 123°06'0 0.0
2018-Feb-04 19:29N 49°18' W 123°06'0 0.0
2018-Feb-04 18:59N 49°19' W 123°06'0 0.1
2018-Feb-04 18:29N 49°19' W 123°07'0 0.1
2018-Feb-04 17:59N 49°19' W 123°06'0 0.0
2018-Feb-04 17:29N 49°19' W 123°06'0 0.0
2018-Feb-04 15:29N 49°19' W 123°06'0 0.0
2018-Feb-04 14:56N 49°19' W 123°06'0 0.0
2018-Feb-04 14:29N 49°19' W 123°06'0 0.1
2018-Feb-04 13:56N 49°19' W 123°07'0 0.1
2018-Feb-04 13:26N 49°19' W 123°06'0 0.0
2018-Feb-04 12:59N 49°19' W 123°06'0 0.0
2018-Feb-04 12:29N 49°19' W 123°06'0 0.0
2018-Feb-04 11:59N 49°19' W 123°06'0 0.0
2018-Feb-04 11:29N 49°19' W 123°06'0 0.0
2018-Feb-04 09:59N 49°19' W 123°06'0 0.0
2018-Feb-04 08:59N 49°19' W 123°06'0 0.0
2018-Feb-04 08:29N 49°19' W 123°06'0 0.0
2018-Feb-04 07:59N 49°19' W 123°06'0 0.0
2018-Feb-04 07:29N 49°19' W 123°06'0 0.0
2018-Feb-04 06:59N 49°19' W 123°06'0 0.0
2018-Feb-04 06:29N 49°19' W 123°06'0 0.0
2018-Feb-04 05:59N 49°19' W 123°06'0 0.0
2018-Feb-04 05:29N 49°19' W 123°06'0 0.0
2018-Feb-04 04:59N 49°19' W 123°06'0 0.0
2018-Feb-04 04:29N 49°19' W 123°06'0 0.0
2018-Feb-04 03:59N 49°19' W 123°06'0 0.0
2018-Feb-04 03:29N 49°19' W 123°06'0 0.0
2018-Feb-04 02:59N 49°19' W 123°06'0 0.1
2018-Feb-04 02:29N 49°19' W 123°07'0 0.1
2018-Feb-04 01:59N 49°19' W 123°06'0 0.0
2018-Feb-04 01:29N 49°18' W 123°06'0 0.0
2018-Feb-04 00:59N 49°19' W 123°06'0 0.0
2018-Feb-04 00:29N 49°19' W 123°06'0 0.0
2018-Feb-03 23:59N 49°19' W 123°06'0 0.0
2018-Feb-03 23:29N 49°19' W 123°06'0 0.0
2018-Feb-03 22:59N 49°19' W 123°06'0 0.0
2018-Feb-03 22:29N 49°19' W 123°06'0 0.0
2018-Feb-03 21:59N 49°19' W 123°06'0 0.0
2018-Feb-03 21:29N 49°19' W 123°06'0 0.0
2018-Feb-03 20:59N 49°19' W 123°06'0 0.0
2018-Feb-03 20:29N 49°19' W 123°06'0 0.0
2018-Feb-03 19:59N 49°19' W 123°06'0 0.0
2018-Feb-03 18:29N 49°19' W 123°06'0 0.0
2018-Feb-03 17:59N 49°19' W 123°06'0 0.0
2018-Feb-03 17:29N 49°19' W 123°06'0 0.0
2018-Feb-03 16:59N 49°19' W 123°06'0 0.0
2018-Feb-03 15:59N 49°19' W 123°06'0 0.0
2018-Feb-03 15:29N 49°19' W 123°06'0 0.0
2018-Feb-03 14:59N 49°19' W 123°06'0 0.0
2018-Feb-03 14:29N 49°19' W 123°06'0 0.0
2018-Feb-03 13:59N 49°19' W 123°06'0 0.0
2018-Feb-03 13:29N 49°19' W 123°06'0 0.0
2018-Feb-03 12:59N 49°19' W 123°06'0 0.0
2018-Feb-03 12:29N 49°19' W 123°06'0 0.0
2018-Feb-03 11:59N 49°19' W 123°06'0 0.0
2018-Feb-03 11:29N 49°19' W 123°06'0 0.0
2018-Feb-03 10:59N 49°19' W 123°06'0 0.0
2018-Feb-03 10:29N 49°19' W 123°06'0 0.0
2018-Feb-03 09:59N 49°19' W 123°06'0 0.0
2018-Feb-03 09:29N 49°19' W 123°06'0 0.0
2018-Feb-03 08:59N 49°19' W 123°06'0 0.0
2018-Feb-03 08:29N 49°19' W 123°06'0 0.0
2018-Feb-03 07:59N 49°19' W 123°06'0 0.0
2018-Feb-03 06:29N 49°19' W 123°06'0 0.0
2018-Feb-03 05:59N 49°19' W 123°06'0 0.0
2018-Feb-03 05:29N 49°19' W 123°06'0 0.0
2018-Feb-03 04:59N 49°19' W 123°06'0 0.0
2018-Feb-03 03:59N 49°19' W 123°06'0 0.0
2018-Feb-03 03:29N 49°19' W 123°06'0 0.0
2018-Feb-03 01:59N 49°19' W 123°06'0 0.0
2018-Feb-03 01:29N 49°19' W 123°06'0 0.0
2018-Feb-03 00:59N 49°19' W 123°06'0 0.0
2018-Feb-03 00:29N 49°19' W 123°06'0 0.0
2018-Feb-02 23:59N 49°19' W 123°06'0 0.0
2018-Feb-02 23:29N 49°19' W 123°06'0 0.0
2018-Feb-02 22:59N 49°19' W 123°06'0 0.1
2018-Feb-02 22:29N 49°19' W 123°07'0 0.1
2018-Feb-02 21:59N 49°19' W 123°06'0 0.0
2018-Feb-02 21:29N 49°18' W 123°06'0 0.0
2018-Feb-02 20:59N 49°19' W 123°06'0 0.0
2018-Feb-02 20:29N 49°19' W 123°06'0 0.0
2018-Feb-02 19:59N 49°19' W 123°06'0 0.0
2018-Feb-02 18:59N 49°19' W 123°06'0 0.1
2018-Feb-02 18:29N 49°19' W 123°07'0 0.1
2018-Feb-02 17:59N 49°19' W 123°06'0 0.0
2018-Feb-02 17:29N 49°19' W 123°06'0 0.0
2018-Feb-02 16:59N 49°19' W 123°06'0 0.0
2018-Feb-02 16:29N 49°19' W 123°06'0 0.0
2018-Feb-02 15:29N 49°19' W 123°06'0 0.0
2018-Feb-02 14:29N 49°19' W 123°06'0 0.0
2018-Feb-02 13:59N 49°19' W 123°06'0 0.0
2018-Feb-02 13:29N 49°19' W 123°06'0 0.1
2018-Feb-02 12:59N 49°19' W 123°07'0 0.1
2018-Feb-02 12:29N 49°19' W 123°06'0 0.0
2018-Feb-02 11:59N 49°18' W 123°06'0 0.0
2018-Feb-02 11:29N 49°19' W 123°06'0 0.0
2018-Feb-02 10:59N 49°19' W 123°06'0 0.0
2018-Feb-02 10:29N 49°19' W 123°06'0 0.0
2018-Feb-02 09:59N 49°19' W 123°06'0 0.0
2018-Feb-02 09:29N 49°19' W 123°06'0 0.0
2018-Feb-02 08:59N 49°19' W 123°06'0 0.0
2018-Feb-02 08:29N 49°19' W 123°06'0 0.0
2018-Feb-02 07:59N 49°19' W 123°06'0 0.0
2018-Feb-02 07:29N 49°19' W 123°06'0 0.0
2018-Feb-02 06:59N 49°19' W 123°06'0 0.0
2018-Feb-02 06:29N 49°19' W 123°06'0 0.0
2018-Feb-02 05:59N 49°19' W 123°06'0 0.0
2018-Feb-02 05:29N 49°19' W 123°06'0 0.0
2018-Feb-02 04:59N 49°19' W 123°06'0 0.0
2018-Feb-02 04:29N 49°19' W 123°06'0 0.0
2018-Feb-02 03:59N 49°19' W 123°06'0 0.0
2018-Feb-02 03:29N 49°19' W 123°06'0 0.0
2018-Feb-02 02:59N 49°19' W 123°06'0 0.0
2018-Feb-02 02:28N 49°19' W 123°06'0 0.0
2018-Feb-02 01:59N 49°19' W 123°06'0 0.0
2018-Feb-02 01:29N 49°19' W 123°06'0 0.0
2018-Feb-02 00:59N 49°19' W 123°06'0 0.0
2018-Feb-02 00:29N 49°19' W 123°06'  

Dump ship's entire track history